sensor_id;sensor_type;location;lat;lon;timestamp;temperature;humidity
66598;DHT22;57424;53.128;6.406;2022-11-12T00:00:26;20.10;76.50
66598;DHT22;57424;53.128;6.406;2022-11-12T00:02:51;20.10;76.60
66598;DHT22;57424;53.128;6.406;2022-11-12T00:05:17;20.10;76.80
66598;DHT22;57424;53.128;6.406;2022-11-12T00:07:42;20.10;76.90
66598;DHT22;57424;53.128;6.406;2022-11-12T00:10:08;20.10;77.10
66598;DHT22;57424;53.128;6.406;2022-11-12T00:12:34;20.10;77.20
66598;DHT22;57424;53.128;6.406;2022-11-12T00:14:59;20.10;77.40
66598;DHT22;57424;53.128;6.406;2022-11-12T00:17:25;20.10;77.60
66598;DHT22;57424;53.128;6.406;2022-11-12T00:19:50;20.10;77.70
66598;DHT22;57424;53.128;6.406;2022-11-12T00:22:16;20.00;77.80
66598;DHT22;57424;53.128;6.406;2022-11-12T00:24:42;20.00;77.90
66598;DHT22;57424;53.128;6.406;2022-11-12T00:27:07;20.00;78.20
66598;DHT22;57424;53.128;6.406;2022-11-12T00:29:33;20.00;78.40
66598;DHT22;57424;53.128;6.406;2022-11-12T00:31:58;20.10;78.80
66598;DHT22;57424;53.128;6.406;2022-11-12T00:34:24;20.00;78.90
66598;DHT22;57424;53.128;6.406;2022-11-12T00:36:49;20.00;79.00
66598;DHT22;57424;53.128;6.406;2022-11-12T00:39:15;20.00;79.10
66598;DHT22;57424;53.128;6.406;2022-11-12T00:41:40;20.00;79.20
66598;DHT22;57424;53.128;6.406;2022-11-12T00:44:06;20.00;79.50
66598;DHT22;57424;53.128;6.406;2022-11-12T00:46:31;20.00;79.80
66598;DHT22;57424;53.128;6.406;2022-11-12T00:48:57;20.00;80.10
66598;DHT22;57424;53.128;6.406;2022-11-12T00:51:22;20.00;80.40
66598;DHT22;57424;53.128;6.406;2022-11-12T00:53:48;20.00;80.70
66598;DHT22;57424;53.128;6.406;2022-11-12T00:56:14;19.90;80.80
66598;DHT22;57424;53.128;6.406;2022-11-12T00:58:40;19.90;80.90
66598;DHT22;57424;53.128;6.406;2022-11-12T01:01:10;20.00;81.00
66598;DHT22;57424;53.128;6.406;2022-11-12T01:03:37;19.90;81.00
66598;DHT22;57424;53.128;6.406;2022-11-12T01:06:29;20.00;81.30
66598;DHT22;57424;53.128;6.406;2022-11-12T01:08:55;19.90;81.30
66598;DHT22;57424;53.128;6.406;2022-11-12T01:13:53;19.90;81.40
66598;DHT22;57424;53.128;6.406;2022-11-12T01:16:22;19.90;81.60
66598;DHT22;57424;53.128;6.406;2022-11-12T01:18:52;19.90;81.70
66598;DHT22;57424;53.128;6.406;2022-11-12T01:21:18;20.00;81.90
66598;DHT22;57424;53.128;6.406;2022-11-12T01:23:43;19.90;82.40
66598;DHT22;57424;53.128;6.406;2022-11-12T01:26:11;19.90;82.70
66598;DHT22;57424;53.128;6.406;2022-11-12T01:28:37;19.90;82.10
66598;DHT22;57424;53.128;6.406;2022-11-12T01:33:40;19.90;81.40
66598;DHT22;57424;53.128;6.406;2022-11-12T01:36:07;19.80;81.60
66598;DHT22;57424;53.128;6.406;2022-11-12T01:38:34;19.80;82.30
66598;DHT22;57424;53.128;6.406;2022-11-12T01:41:00;19.90;82.60
66598;DHT22;57424;53.128;6.406;2022-11-12T01:43:25;19.90;81.80
66598;DHT22;57424;53.128;6.406;2022-11-12T01:45:53;19.80;82.10
66598;DHT22;57424;53.128;6.406;2022-11-12T01:48:29;19.80;82.10
66598;DHT22;57424;53.128;6.406;2022-11-12T01:50:56;19.80;83.10
66598;DHT22;57424;53.128;6.406;2022-11-12T01:53:25;19.80;82.20
66598;DHT22;57424;53.128;6.406;2022-11-12T01:55:53;19.80;83.60
66598;DHT22;57424;53.128;6.406;2022-11-12T01:58:22;19.80;82.40
66598;DHT22;57424;53.128;6.406;2022-11-12T02:00:49;19.80;82.70
66598;DHT22;57424;53.128;6.406;2022-11-12T02:03:19;19.80;83.30
66598;DHT22;57424;53.128;6.406;2022-11-12T02:05:47;19.80;83.80
66598;DHT22;57424;53.128;6.406;2022-11-12T02:08:15;19.80;85.60
66598;DHT22;57424;53.128;6.406;2022-11-12T02:10:41;19.50;85.70
66598;DHT22;57424;53.128;6.406;2022-11-12T02:13:07;19.70;85.90
66598;DHT22;57424;53.128;6.406;2022-11-12T02:15:51;19.80;85.80
66598;DHT22;57424;53.128;6.406;2022-11-12T02:18:17;19.80;85.50
66598;DHT22;57424;53.128;6.406;2022-11-12T02:20:43;19.80;84.60
66598;DHT22;57424;53.128;6.406;2022-11-12T02:23:09;19.80;85.80
66598;DHT22;57424;53.128;6.406;2022-11-12T02:25:35;19.70;85.30
66598;DHT22;57424;53.128;6.406;2022-11-12T02:28:03;19.80;85.00
66598;DHT22;57424;53.128;6.406;2022-11-12T02:30:33;19.70;85.00
66598;DHT22;57424;53.128;6.406;2022-11-12T02:32:59;19.70;85.80
66598;DHT22;57424;53.128;6.406;2022-11-12T02:35:25;19.70;86.30
66598;DHT22;57424;53.128;6.406;2022-11-12T02:37:50;19.70;86.10
66598;DHT22;57424;53.128;6.406;2022-11-12T02:40:16;19.80;86.20
66598;DHT22;57424;53.128;6.406;2022-11-12T02:42:41;19.70;86.60
66598;DHT22;57424;53.128;6.406;2022-11-12T02:45:07;19.70;86.90
66598;DHT22;57424;53.128;6.406;2022-11-12T03:46:17;19.50;73.30
66598;DHT22;57424;53.128;6.406;2022-11-12T03:48:42;19.60;76.90
66598;DHT22;57424;53.128;6.406;2022-11-12T03:51:08;19.50;79.00
66598;DHT22;57424;53.128;6.406;2022-11-12T03:53:36;19.50;75.50
66598;DHT22;57424;53.128;6.406;2022-11-12T03:56:02;19.50;75.10
66598;DHT22;57424;53.128;6.406;2022-11-12T03:58:27;19.50;75.20
66598;DHT22;57424;53.128;6.406;2022-11-12T04:00:53;19.40;75.30
66598;DHT22;57424;53.128;6.406;2022-11-12T04:03:18;19.50;75.50
66598;DHT22;57424;53.128;6.406;2022-11-12T04:05:44;19.50;75.60
66598;DHT22;57424;53.128;6.406;2022-11-12T04:08:28;19.40;75.80
66598;DHT22;57424;53.128;6.406;2022-11-12T04:13:32;19.50;77.20
66598;DHT22;57424;53.128;6.406;2022-11-12T04:16:01;19.50;77.40
66598;DHT22;57424;53.128;6.406;2022-11-12T04:18:47;19.40;77.60
66598;DHT22;57424;53.128;6.406;2022-11-12T04:21:38;19.40;78.50
66598;DHT22;57424;53.128;6.406;2022-11-12T04:24:36;19.40;79.70
66598;DHT22;57424;53.128;6.406;2022-11-12T04:27:23;19.40;81.40
66598;DHT22;57424;53.128;6.406;2022-11-12T04:29:49;19.30;79.20
66598;DHT22;57424;53.128;6.406;2022-11-12T04:32:36;19.40;79.70
66598;DHT22;57424;53.128;6.406;2022-11-12T04:35:03;19.40;79.90
66598;DHT22;57424;53.128;6.406;2022-11-12T04:37:30;19.40;80.10
66598;DHT22;57424;53.128;6.406;2022-11-12T04:40:23;19.40;80.60
66598;DHT22;57424;53.128;6.406;2022-11-12T04:43:12;19.30;81.20
66598;DHT22;57424;53.128;6.406;2022-11-12T04:48:24;19.30;83.00
66598;DHT22;57424;53.128;6.406;2022-11-12T04:51:01;19.60;84.30
66598;DHT22;57424;53.128;6.406;2022-11-12T04:53:28;19.50;82.90
66598;DHT22;57424;53.128;6.406;2022-11-12T04:55:56;19.40;80.00
66598;DHT22;57424;53.128;6.406;2022-11-12T04:58:22;19.30;80.00
66598;DHT22;57424;53.128;6.406;2022-11-12T05:00:49;19.30;80.10
66598;DHT22;57424;53.128;6.406;2022-11-12T05:03:15;19.30;80.20
66598;DHT22;57424;53.128;6.406;2022-11-12T05:05:40;19.30;80.30
66598;DHT22;57424;53.128;6.406;2022-11-12T05:08:06;19.30;80.50
66598;DHT22;57424;53.128;6.406;2022-11-12T05:10:32;19.30;80.70
66598;DHT22;57424;53.128;6.406;2022-11-12T05:12:57;19.20;80.80
66598;DHT22;57424;53.128;6.406;2022-11-12T05:15:23;19.30;81.20
66598;DHT22;57424;53.128;6.406;2022-11-12T05:17:49;19.20;81.30
66598;DHT22;57424;53.128;6.406;2022-11-12T05:20:15;19.20;81.70
66598;DHT22;57424;53.128;6.406;2022-11-12T05:22:41;19.30;82.20
66598;DHT22;57424;53.128;6.406;2022-11-12T05:25:07;19.20;83.60
66598;DHT22;57424;53.128;6.406;2022-11-12T05:29:59;19.40;83.80
66598;DHT22;57424;53.128;6.406;2022-11-12T05:32:25;19.20;82.00
66598;DHT22;57424;53.128;6.406;2022-11-12T05:34:51;19.20;83.80
66598;DHT22;57424;53.128;6.406;2022-11-12T05:37:19;19.20;80.50
66598;DHT22;57424;53.128;6.406;2022-11-12T05:39:45;19.20;81.30
66598;DHT22;57424;53.128;6.406;2022-11-12T05:42:11;19.20;81.70
66598;DHT22;57424;53.128;6.406;2022-11-12T05:44:36;19.20;82.40
66598;DHT22;57424;53.128;6.406;2022-11-12T05:47:02;19.50;83.10
66598;DHT22;57424;53.128;6.406;2022-11-12T05:49:28;19.20;83.40
66598;DHT22;57424;53.128;6.406;2022-11-12T05:51:54;19.20;85.50
66598;DHT22;57424;53.128;6.406;2022-11-12T05:54:19;19.30;85.50
66598;DHT22;57424;53.128;6.406;2022-11-12T05:56:45;19.20;85.70
66598;DHT22;57424;53.128;6.406;2022-11-12T05:59:12;19.20;82.40
66598;DHT22;57424;53.128;6.406;2022-11-12T06:01:38;19.20;82.90
66598;DHT22;57424;53.128;6.406;2022-11-12T06:04:13;19.20;84.20
66598;DHT22;57424;53.128;6.406;2022-11-12T06:06:42;19.20;85.20
66598;DHT22;57424;53.128;6.406;2022-11-12T06:09:09;19.30;84.20
66598;DHT22;57424;53.128;6.406;2022-11-12T06:11:35;19.00;86.20
66598;DHT22;57424;53.128;6.406;2022-11-12T06:14:01;19.00;87.50
66598;DHT22;57424;53.128;6.406;2022-11-12T06:16:28;18.90;83.50
66598;DHT22;57424;53.128;6.406;2022-11-12T06:18:53;19.20;84.30
66598;DHT22;57424;53.128;6.406;2022-11-12T06:21:19;19.20;86.20
66598;DHT22;57424;53.128;6.406;2022-11-12T06:23:46;19.00;86.80
66598;DHT22;57424;53.128;6.406;2022-11-12T06:26:12;19.10;85.80
66598;DHT22;57424;53.128;6.406;2022-11-12T06:28:38;19.10;85.40
66598;DHT22;57424;53.128;6.406;2022-11-12T06:31:04;19.10;81.40
66598;DHT22;57424;53.128;6.406;2022-11-12T06:33:29;19.10;81.40
66598;DHT22;57424;53.128;6.406;2022-11-12T06:35:59;19.10;81.50
66598;DHT22;57424;53.128;6.406;2022-11-12T06:38:28;19.10;81.70
66598;DHT22;57424;53.128;6.406;2022-11-12T06:40:54;19.10;81.80
66598;DHT22;57424;53.128;6.406;2022-11-12T06:43:20;19.10;82.00
66598;DHT22;57424;53.128;6.406;2022-11-12T06:45:45;19.10;82.20
66598;DHT22;57424;53.128;6.406;2022-11-12T06:48:11;19.10;83.30
66598;DHT22;57424;53.128;6.406;2022-11-12T06:50:36;19.10;83.80
66598;DHT22;57424;53.128;6.406;2022-11-12T06:53:02;19.10;83.30
66598;DHT22;57424;53.128;6.406;2022-11-12T06:55:27;19.10;83.20
66598;DHT22;57424;53.128;6.406;2022-11-12T06:57:53;19.10;83.50
66598;DHT22;57424;53.128;6.406;2022-11-12T07:00:19;19.10;83.90
66598;DHT22;57424;53.128;6.406;2022-11-12T07:02:45;19.10;84.10
66598;DHT22;57424;53.128;6.406;2022-11-12T07:05:10;19.10;84.30
66598;DHT22;57424;53.128;6.406;2022-11-12T07:07:36;19.10;84.60
66598;DHT22;57424;53.128;6.406;2022-11-12T07:10:01;19.10;85.00
66598;DHT22;57424;53.128;6.406;2022-11-12T07:12:27;19.20;85.20
66598;DHT22;57424;53.128;6.406;2022-11-12T07:14:52;19.20;85.30
66598;DHT22;57424;53.128;6.406;2022-11-12T07:17:18;19.20;85.50
66598;DHT22;57424;53.128;6.406;2022-11-12T07:19:44;19.20;85.80
66598;DHT22;57424;53.128;6.406;2022-11-12T07:22:09;19.20;86.00
66598;DHT22;57424;53.128;6.406;2022-11-12T07:24:35;19.20;86.20
66598;DHT22;57424;53.128;6.406;2022-11-12T07:27:00;19.20;86.60
66598;DHT22;57424;53.128;6.406;2022-11-12T07:29:26;19.20;86.90
66598;DHT22;57424;53.128;6.406;2022-11-12T07:31:51;19.20;87.40
66598;DHT22;57424;53.128;6.406;2022-11-12T07:34:17;19.20;87.80
66598;DHT22;57424;53.128;6.406;2022-11-12T07:36:42;19.30;88.60
66598;DHT22;57424;53.128;6.406;2022-11-12T07:48:54;19.40;73.40
66598;DHT22;57424;53.128;6.406;2022-11-12T07:51:25;19.40;74.10
66598;DHT22;57424;53.128;6.406;2022-11-12T07:53:53;19.40;74.20
66598;DHT22;57424;53.128;6.406;2022-11-12T07:56:20;19.40;74.40
66598;DHT22;57424;53.128;6.406;2022-11-12T07:58:47;19.40;74.60
66598;DHT22;57424;53.128;6.406;2022-11-12T08:01:23;19.50;74.60
66598;DHT22;57424;53.128;6.406;2022-11-12T08:03:49;19.50;74.70
66598;DHT22;57424;53.128;6.406;2022-11-12T08:06:15;19.50;74.70
66598;DHT22;57424;53.128;6.406;2022-11-12T08:08:40;19.60;74.80
66598;DHT22;57424;53.128;6.406;2022-11-12T08:11:07;19.70;74.80
66598;DHT22;57424;53.128;6.406;2022-11-12T08:13:32;19.70;74.90
66598;DHT22;57424;53.128;6.406;2022-11-12T08:15:58;19.60;75.00
66598;DHT22;57424;53.128;6.406;2022-11-12T08:18:24;19.70;75.10
66598;DHT22;57424;53.128;6.406;2022-11-12T08:20:50;19.70;75.60
66598;DHT22;57424;53.128;6.406;2022-11-12T08:23:16;19.70;75.60
66598;DHT22;57424;53.128;6.406;2022-11-12T08:25:41;19.80;75.60
66598;DHT22;57424;53.128;6.406;2022-11-12T08:28:08;19.80;75.60
66598;DHT22;57424;53.128;6.406;2022-11-12T08:30:34;19.90;75.60
66598;DHT22;57424;53.128;6.406;2022-11-12T08:33:02;19.90;75.60
66598;DHT22;57424;53.128;6.406;2022-11-12T08:35:29;20.00;75.60
66598;DHT22;57424;53.128;6.406;2022-11-12T08:37:59;20.00;75.70
66598;DHT22;57424;53.128;6.406;2022-11-12T08:40:27;20.00;75.80
66598;DHT22;57424;53.128;6.406;2022-11-12T08:45:22;20.00;76.30
66598;DHT22;57424;53.128;6.406;2022-11-12T08:47:48;20.00;76.40
66598;DHT22;57424;53.128;6.406;2022-11-12T08:50:13;20.00;76.40
66598;DHT22;57424;53.128;6.406;2022-11-12T08:52:39;20.10;76.50
66598;DHT22;57424;53.128;6.406;2022-11-12T08:55:05;20.10;76.60
66598;DHT22;57424;53.128;6.406;2022-11-12T08:57:30;20.10;76.60
66598;DHT22;57424;53.128;6.406;2022-11-12T08:59:56;20.10;76.50
66598;DHT22;57424;53.128;6.406;2022-11-12T09:02:21;20.10;76.50
66598;DHT22;57424;53.128;6.406;2022-11-12T09:04:47;20.20;76.50
66598;DHT22;57424;53.128;6.406;2022-11-12T09:07:13;20.20;76.60
66598;DHT22;57424;53.128;6.406;2022-11-12T09:09:38;20.20;76.70
66598;DHT22;57424;53.128;6.406;2022-11-12T09:12:04;20.20;76.60
66598;DHT22;57424;53.128;6.406;2022-11-12T09:14:30;20.20;76.60
66598;DHT22;57424;53.128;6.406;2022-11-12T09:16:55;20.20;76.70
66598;DHT22;57424;53.128;6.406;2022-11-12T09:19:21;20.30;77.50
66598;DHT22;57424;53.128;6.406;2022-11-12T09:21:46;20.30;77.60
66598;DHT22;57424;53.128;6.406;2022-11-12T09:24:12;20.30;77.50
66598;DHT22;57424;53.128;6.406;2022-11-12T09:26:37;20.30;77.60
66598;DHT22;57424;53.128;6.406;2022-11-12T09:29:03;20.30;77.60
66598;DHT22;57424;53.128;6.406;2022-11-12T09:31:28;20.30;77.70
66598;DHT22;57424;53.128;6.406;2022-11-12T09:33:54;20.40;77.70
66598;DHT22;57424;53.128;6.406;2022-11-12T09:36:19;20.30;77.70
66598;DHT22;57424;53.128;6.406;2022-11-12T09:38:45;20.40;77.80
66598;DHT22;57424;53.128;6.406;2022-11-12T09:41:19;20.30;77.80
66598;DHT22;57424;53.128;6.406;2022-11-12T09:43:51;20.40;77.90
66598;DHT22;57424;53.128;6.406;2022-11-12T09:46:44;20.40;78.00
66598;DHT22;57424;53.128;6.406;2022-11-12T09:49:23;20.40;78.50
66598;DHT22;57424;53.128;6.406;2022-11-12T09:55:07;20.30;78.60
66598;DHT22;57424;53.128;6.406;2022-11-12T09:57:37;20.40;78.70
66598;DHT22;57424;53.128;6.406;2022-11-12T10:00:15;20.40;78.80
66598;DHT22;57424;53.128;6.406;2022-11-12T10:08:04;20.40;79.00
66598;DHT22;57424;53.128;6.406;2022-11-12T10:10:33;20.40;79.00
66598;DHT22;57424;53.128;6.406;2022-11-12T10:16:10;20.40;79.30
66598;DHT22;57424;53.128;6.406;2022-11-12T10:19:04;20.40;79.40
66598;DHT22;57424;53.128;6.406;2022-11-12T10:21:48;20.40;79.40
66598;DHT22;57424;53.128;6.406;2022-11-12T10:24:20;20.40;79.50
66598;DHT22;57424;53.128;6.406;2022-11-12T10:26:47;20.40;79.50
66598;DHT22;57424;53.128;6.406;2022-11-12T10:29:35;20.40;79.70
66598;DHT22;57424;53.128;6.406;2022-11-12T10:32:03;20.40;80.00
66598;DHT22;57424;53.128;6.406;2022-11-12T10:34:29;20.40;80.10
66598;DHT22;57424;53.128;6.406;2022-11-12T10:39:44;20.40;82.00
66598;DHT22;57424;53.128;6.406;2022-11-12T10:42:20;20.40;83.50
66598;DHT22;57424;53.128;6.406;2022-11-12T10:50:21;20.40;85.50
66598;DHT22;57424;53.128;6.406;2022-11-12T10:52:54;20.40;86.40
66598;DHT22;57424;53.128;6.406;2022-11-12T10:55:31;20.40;86.50
66598;DHT22;57424;53.128;6.406;2022-11-12T11:33:47;20.30;85.70
66598;DHT22;57424;53.128;6.406;2022-11-12T13:42:50;20.20;78.60
66598;DHT22;57424;53.128;6.406;2022-11-12T13:45:22;20.30;78.30
66598;DHT22;57424;53.128;6.406;2022-11-12T13:47:49;20.20;78.30
66598;DHT22;57424;53.128;6.406;2022-11-12T13:50:18;20.20;78.50
66598;DHT22;57424;53.128;6.406;2022-11-12T13:52:46;20.20;78.70
66598;DHT22;57424;53.128;6.406;2022-11-12T13:55:14;20.20;79.00
66598;DHT22;57424;53.128;6.406;2022-11-12T13:57:40;20.30;79.50
66598;DHT22;57424;53.128;6.406;2022-11-12T14:00:26;20.20;81.40
66598;DHT22;57424;53.128;6.406;2022-11-12T14:05:24;20.20;83.30
66598;DHT22;57424;53.128;6.406;2022-11-12T14:16:25;20.20;76.60
66598;DHT22;57424;53.128;6.406;2022-11-12T14:21:33;20.20;77.80
66598;DHT22;57424;53.128;6.406;2022-11-12T14:24:00;20.10;78.30
66598;DHT22;57424;53.128;6.406;2022-11-12T14:26:35;20.20;78.40
66598;DHT22;57424;53.128;6.406;2022-11-12T14:29:01;20.20;77.50
66598;DHT22;57424;53.128;6.406;2022-11-12T14:31:27;20.20;77.90
66598;DHT22;57424;53.128;6.406;2022-11-12T14:33:52;20.10;78.60
66598;DHT22;57424;53.128;6.406;2022-11-12T14:36:18;20.10;79.50
66598;DHT22;57424;53.128;6.406;2022-11-12T14:38:50;20.20;81.00
66598;DHT22;57424;53.128;6.406;2022-11-12T14:41:28;20.10;81.30
66598;DHT22;57424;53.128;6.406;2022-11-12T14:43:56;20.10;81.00
66598;DHT22;57424;53.128;6.406;2022-11-12T14:46:27;20.10;81.30
66598;DHT22;57424;53.128;6.406;2022-11-12T14:49:00;20.20;81.60
66598;DHT22;57424;53.128;6.406;2022-11-12T14:51:31;20.20;81.80
66598;DHT22;57424;53.128;6.406;2022-11-12T14:54:06;20.20;81.90
66598;DHT22;57424;53.128;6.406;2022-11-12T14:56:40;20.20;82.10
66598;DHT22;57424;53.128;6.406;2022-11-12T14:59:09;20.20;82.30
66598;DHT22;57424;53.128;6.406;2022-11-12T15:01:38;20.10;82.50
66598;DHT22;57424;53.128;6.406;2022-11-12T15:06:36;20.10;82.80
66598;DHT22;57424;53.128;6.406;2022-11-12T15:09:03;20.20;83.30
66598;DHT22;57424;53.128;6.406;2022-11-12T15:11:32;20.20;83.60
66598;DHT22;57424;53.128;6.406;2022-11-12T15:14:01;20.20;83.90
66598;DHT22;57424;53.128;6.406;2022-11-12T15:16:34;20.20;84.20
66598;DHT22;57424;53.128;6.406;2022-11-12T15:21:32;20.10;85.00
66598;DHT22;57424;53.128;6.406;2022-11-12T15:26:41;20.20;86.20
66598;DHT22;57424;53.128;6.406;2022-11-12T15:31:46;20.10;83.90
66598;DHT22;57424;53.128;6.406;2022-11-12T15:39:26;20.10;85.40
66598;DHT22;57424;53.128;6.406;2022-11-12T15:46:51;20.00;85.50
66598;DHT22;57424;53.128;6.406;2022-11-12T16:06:40;20.10;86.80
66598;DHT22;57424;53.128;6.406;2022-11-12T16:09:05;20.20;87.30
66598;DHT22;57424;53.128;6.406;2022-11-12T16:11:31;20.10;87.70
66598;DHT22;57424;53.128;6.406;2022-11-12T16:21:20;20.20;72.70
66598;DHT22;57424;53.128;6.406;2022-11-12T16:23:45;20.20;73.60
66598;DHT22;57424;53.128;6.406;2022-11-12T16:26:13;20.20;73.70
66598;DHT22;57424;53.128;6.406;2022-11-12T16:28:40;20.10;73.70
66598;DHT22;57424;53.128;6.406;2022-11-12T16:31:06;20.20;73.80
66598;DHT22;57424;53.128;6.406;2022-11-12T16:33:31;20.10;74.10
66598;DHT22;57424;53.128;6.406;2022-11-12T16:35:57;20.10;74.30
66598;DHT22;57424;53.128;6.406;2022-11-12T16:38:22;20.20;74.30
66598;DHT22;57424;53.128;6.406;2022-11-12T16:40:50;20.20;74.40
66598;DHT22;57424;53.128;6.406;2022-11-12T16:43:15;20.20;74.40
66598;DHT22;57424;53.128;6.406;2022-11-12T16:45:42;20.20;74.50
66598;DHT22;57424;53.128;6.406;2022-11-12T16:48:20;20.20;74.50
66598;DHT22;57424;53.128;6.406;2022-11-12T16:50:46;20.20;74.50
66598;DHT22;57424;53.128;6.406;2022-11-12T16:53:11;20.20;74.50
66598;DHT22;57424;53.128;6.406;2022-11-12T16:55:37;20.20;74.60
66598;DHT22;57424;53.128;6.406;2022-11-12T16:58:03;20.20;74.70
66598;DHT22;57424;53.128;6.406;2022-11-12T17:00:28;20.30;75.00
66598;DHT22;57424;53.128;6.406;2022-11-12T17:02:54;20.20;74.80
66598;DHT22;57424;53.128;6.406;2022-11-12T17:05:21;20.30;74.90
66598;DHT22;57424;53.128;6.406;2022-11-12T17:07:48;20.20;75.00
66598;DHT22;57424;53.128;6.406;2022-11-12T17:10:14;20.20;75.20
66598;DHT22;57424;53.128;6.406;2022-11-12T17:12:40;20.20;75.40
66598;DHT22;57424;53.128;6.406;2022-11-12T17:15:06;20.20;75.50
66598;DHT22;57424;53.128;6.406;2022-11-12T17:17:33;20.30;75.50
66598;DHT22;57424;53.128;6.406;2022-11-12T17:19:58;20.30;75.60
66598;DHT22;57424;53.128;6.406;2022-11-12T17:22:24;20.30;75.70
66598;DHT22;57424;53.128;6.406;2022-11-12T17:24:50;20.30;75.70
66598;DHT22;57424;53.128;6.406;2022-11-12T17:27:16;20.30;75.80
66598;DHT22;57424;53.128;6.406;2022-11-12T17:29:41;20.30;75.90
66598;DHT22;57424;53.128;6.406;2022-11-12T17:32:07;20.30;76.00
66598;DHT22;57424;53.128;6.406;2022-11-12T17:34:33;20.30;77.00
66598;DHT22;57424;53.128;6.406;2022-11-12T17:36:58;20.40;77.20
66598;DHT22;57424;53.128;6.406;2022-11-12T17:39:24;20.40;77.60
66598;DHT22;57424;53.128;6.406;2022-11-12T17:41:49;20.30;78.60
66598;DHT22;57424;53.128;6.406;2022-11-12T17:44:16;20.30;78.60
66598;DHT22;57424;53.128;6.406;2022-11-12T17:46:43;20.30;78.50
66598;DHT22;57424;53.128;6.406;2022-11-12T17:49:09;20.40;78.50
66598;DHT22;57424;53.128;6.406;2022-11-12T17:51:35;20.40;78.50
66598;DHT22;57424;53.128;6.406;2022-11-12T17:54:01;20.40;78.70
66598;DHT22;57424;53.128;6.406;2022-11-12T17:56:26;20.40;79.00
66598;DHT22;57424;53.128;6.406;2022-11-12T17:58:52;20.40;79.00
66598;DHT22;57424;53.128;6.406;2022-11-12T18:01:23;20.30;79.20
66598;DHT22;57424;53.128;6.406;2022-11-12T18:03:50;20.40;79.50
66598;DHT22;57424;53.128;6.406;2022-11-12T18:08:44;20.30;79.60
66598;DHT22;57424;53.128;6.406;2022-11-12T18:11:10;20.30;79.80
66598;DHT22;57424;53.128;6.406;2022-11-12T18:13:36;20.30;79.80
66598;DHT22;57424;53.128;6.406;2022-11-12T18:16:15;20.40;79.90
66598;DHT22;57424;53.128;6.406;2022-11-12T18:18:41;20.40;80.90
66598;DHT22;57424;53.128;6.406;2022-11-12T18:21:07;20.40;80.90
66598;DHT22;57424;53.128;6.406;2022-11-12T18:23:37;20.40;80.90
66598;DHT22;57424;53.128;6.406;2022-11-12T18:26:03;20.40;81.10
66598;DHT22;57424;53.128;6.406;2022-11-12T18:28:28;20.40;81.60
66598;DHT22;57424;53.128;6.406;2022-11-12T18:31:01;20.40;82.50
66598;DHT22;57424;53.128;6.406;2022-11-12T18:33:28;20.40;82.00
66598;DHT22;57424;53.128;6.406;2022-11-12T18:36:08;20.40;82.10
66598;DHT22;57424;53.128;6.406;2022-11-12T18:38:34;20.40;82.30
66598;DHT22;57424;53.128;6.406;2022-11-12T18:41:05;20.50;82.40
66598;DHT22;57424;53.128;6.406;2022-11-12T18:43:31;20.40;81.90
66598;DHT22;57424;53.128;6.406;2022-11-12T18:45:58;20.50;82.00
66598;DHT22;57424;53.128;6.406;2022-11-12T18:48:25;20.40;82.10
66598;DHT22;57424;53.128;6.406;2022-11-12T18:50:50;20.40;82.30
66598;DHT22;57424;53.128;6.406;2022-11-12T18:53:16;20.40;82.40
66598;DHT22;57424;53.128;6.406;2022-11-12T18:55:42;20.40;82.40
66598;DHT22;57424;53.128;6.406;2022-11-12T18:58:07;20.50;82.30
66598;DHT22;57424;53.128;6.406;2022-11-12T19:00:33;20.40;82.60
66598;DHT22;57424;53.128;6.406;2022-11-12T19:02:59;20.50;80.20
66598;DHT22;57424;53.128;6.406;2022-11-12T19:05:25;20.50;80.10
66598;DHT22;57424;53.128;6.406;2022-11-12T19:07:50;20.50;80.20
66598;DHT22;57424;53.128;6.406;2022-11-12T19:10:16;20.50;80.30
66598;DHT22;57424;53.128;6.406;2022-11-12T19:12:41;20.40;80.50
66598;DHT22;57424;53.128;6.406;2022-11-12T19:15:07;20.50;81.10
66598;DHT22;57424;53.128;6.406;2022-11-12T19:17:33;20.50;81.10
66598;DHT22;57424;53.128;6.406;2022-11-12T19:19:58;20.50;81.10
66598;DHT22;57424;53.128;6.406;2022-11-12T19:22:24;20.50;81.20
66598;DHT22;57424;53.128;6.406;2022-11-12T19:24:49;20.50;81.20
66598;DHT22;57424;53.128;6.406;2022-11-12T19:27:15;20.50;81.20
66598;DHT22;57424;53.128;6.406;2022-11-12T19:29:40;20.50;81.20
66598;DHT22;57424;53.128;6.406;2022-11-12T19:32:06;20.50;81.30
66598;DHT22;57424;53.128;6.406;2022-11-12T19:34:32;20.50;81.40
66598;DHT22;57424;53.128;6.406;2022-11-12T19:36:57;20.50;81.50
66598;DHT22;57424;53.128;6.406;2022-11-12T19:39:23;20.50;81.40
66598;DHT22;57424;53.128;6.406;2022-11-12T19:41:49;20.50;81.50
66598;DHT22;57424;53.128;6.406;2022-11-12T19:44:14;20.60;81.60
66598;DHT22;57424;53.128;6.406;2022-11-12T19:46:40;20.60;81.70
66598;DHT22;57424;53.128;6.406;2022-11-12T19:49:06;20.50;81.80
66598;DHT22;57424;53.128;6.406;2022-11-12T19:51:31;20.50;82.20
66598;DHT22;57424;53.128;6.406;2022-11-12T19:53:57;20.60;82.20
66598;DHT22;57424;53.128;6.406;2022-11-12T19:56:22;20.50;82.30
66598;DHT22;57424;53.128;6.406;2022-11-12T19:58:48;20.60;82.30
66598;DHT22;57424;53.128;6.406;2022-11-12T20:01:16;20.50;82.30
66598;DHT22;57424;53.128;6.406;2022-11-12T20:03:42;20.60;82.40
66598;DHT22;57424;53.128;6.406;2022-11-12T20:06:13;20.60;82.50
66598;DHT22;57424;53.128;6.406;2022-11-12T20:08:39;20.60;82.50
66598;DHT22;57424;53.128;6.406;2022-11-12T20:11:05;20.60;82.50
66598;DHT22;57424;53.128;6.406;2022-11-12T20:13:31;20.60;82.60
66598;DHT22;57424;53.128;6.406;2022-11-12T20:15:56;20.60;82.70
66598;DHT22;57424;53.128;6.406;2022-11-12T20:18:22;20.60;82.70
66598;DHT22;57424;53.128;6.406;2022-11-12T20:20:53;20.60;82.70
66598;DHT22;57424;53.128;6.406;2022-11-12T20:23:20;20.60;82.80
66598;DHT22;57424;53.128;6.406;2022-11-12T20:25:48;20.60;83.00
66598;DHT22;57424;53.128;6.406;2022-11-12T20:28:13;20.60;83.00
66598;DHT22;57424;53.128;6.406;2022-11-12T20:30:39;20.60;83.00
66598;DHT22;57424;53.128;6.406;2022-11-12T20:33:04;20.60;83.00
66598;DHT22;57424;53.128;6.406;2022-11-12T20:35:33;20.60;83.10
66598;DHT22;57424;53.128;6.406;2022-11-12T20:37:59;20.60;83.20
66598;DHT22;57424;53.128;6.406;2022-11-12T20:40:25;20.60;83.20
66598;DHT22;57424;53.128;6.406;2022-11-12T20:42:50;20.60;83.40
66598;DHT22;57424;53.128;6.406;2022-11-12T20:45:16;20.60;83.70
66598;DHT22;57424;53.128;6.406;2022-11-12T20:47:42;20.60;84.00
66598;DHT22;57424;53.128;6.406;2022-11-12T20:50:07;20.60;84.10
66598;DHT22;57424;53.128;6.406;2022-11-12T20:52:33;20.60;84.20
66598;DHT22;57424;53.128;6.406;2022-11-12T20:54:58;20.60;84.20
66598;DHT22;57424;53.128;6.406;2022-11-12T20:57:24;20.60;84.30
66598;DHT22;57424;53.128;6.406;2022-11-12T20:59:50;20.60;84.40